sensor_id;sensor_type;location;lat;lon;timestamp;P1;P2;P0
74333;PMS5003;62753;40.394;-80.022;2023-11-18T00:00:18;19;19;
74333;PMS5003;62753;40.394;-80.022;2023-11-18T00:02:43;17;17;
74333;PMS5003;62753;40.394;-80.022;2023-11-18T00:05:09;19;18;
74333;PMS5003;62753;40.394;-80.022;2023-11-18T00:07:34;19;18;
74333;PMS5003;62753;40.394;-80.022;2023-11-18T00:09:59;17;17;
74333;PMS5003;62753;40.394;-80.022;2023-11-18T00:12:24;21;20;
74333;PMS5003;62753;40.394;-80.022;2023-11-18T00:14:50;24;21;
74333;PMS5003;62753;40.394;-80.022;2023-11-18T00:17:15;19;18;
74333;PMS5003;62753;40.394;-80.022;2023-11-18T00:19:41;22;17;
74333;PMS5003;62753;40.394;-80.022;2023-11-18T00:22:06;18;17;
74333;PMS5003;62753;40.394;-80.022;2023-11-18T00:24:31;21;20;
74333;PMS5003;62753;40.394;-80.022;2023-11-18T00:26:57;17;15;
74333;PMS5003;62753;40.394;-80.022;2023-11-18T00:29:22;16;14;
74333;PMS5003;62753;40.394;-80.022;2023-11-18T00:31:47;18;16;
74333;PMS5003;62753;40.394;-80.022;2023-11-18T00:34:13;17;15;
74333;PMS5003;62753;40.394;-80.022;2023-11-18T00:36:38;19;17;
74333;PMS5003;62753;40.394;-80.022;2023-11-18T00:39:03;17;17;
74333;PMS5003;62753;40.394;-80.022;2023-11-18T00:41:28;18;15;
74333;PMS5003;62753;40.394;-80.022;2023-11-18T00:43:53;16;14;
74333;PMS5003;62753;40.394;-80.022;2023-11-18T00:46:19;19;16;
74333;PMS5003;62753;40.394;-80.022;2023-11-18T00:48:45;17;16;
74333;PMS5003;62753;40.394;-80.022;2023-11-18T00:51:10;16;15;
74333;PMS5003;62753;40.394;-80.022;2023-11-18T00:53:35;15;15;
74333;PMS5003;62753;40.394;-80.022;2023-11-18T00:56:01;17;17;
74333;PMS5003;62753;40.394;-80.022;2023-11-18T00:58:26;15;14;
74333;PMS5003;62753;40.394;-80.022;2023-11-18T01:00:52;17;16;
74333;PMS5003;62753;40.394;-80.022;2023-11-18T01:03:17;18;16;
74333;PMS5003;62753;40.394;-80.022;2023-11-18T01:05:42;15;15;
74333;PMS5003;62753;40.394;-80.022;2023-11-18T01:08:08;16;16;
74333;PMS5003;62753;40.394;-80.022;2023-11-18T01:10:32;16;15;
74333;PMS5003;62753;40.394;-80.022;2023-11-18T01:12:58;14;14;
74333;PMS5003;62753;40.394;-80.022;2023-11-18T01:15:23;16;15;
74333;PMS5003;62753;40.394;-80.022;2023-11-18T01:17:48;17;16;
74333;PMS5003;62753;40.394;-80.022;2023-11-18T01:20:14;16;16;
74333;PMS5003;62753;40.394;-80.022;2023-11-18T01:22:39;19;16;
74333;PMS5003;62753;40.394;-80.022;2023-11-18T01:25:05;17;16;
74333;PMS5003;62753;40.394;-80.022;2023-11-18T01:27:30;18;16;
74333;PMS5003;62753;40.394;-80.022;2023-11-18T01:29:56;13;13;
74333;PMS5003;62753;40.394;-80.022;2023-11-18T01:32:21;18;14;
74333;PMS5003;62753;40.394;-80.022;2023-11-18T01:34:47;13;13;
74333;PMS5003;62753;40.394;-80.022;2023-11-18T01:37:12;13;13;
74333;PMS5003;62753;40.394;-80.022;2023-11-18T01:39:37;14;14;
74333;PMS5003;62753;40.394;-80.022;2023-11-18T01:42:03;14;11;
74333;PMS5003;62753;40.394;-80.022;2023-11-18T01:44:28;14;13;
74333;PMS5003;62753;40.394;-80.022;2023-11-18T01:46:54;16;15;
74333;PMS5003;62753;40.394;-80.022;2023-11-18T01:49:19;15;15;
74333;PMS5003;62753;40.394;-80.022;2023-11-18T01:51:44;14;14;
74333;PMS5003;62753;40.394;-80.022;2023-11-18T01:54:09;15;15;
74333;PMS5003;62753;40.394;-80.022;2023-11-18T01:56:34;19;17;
74333;PMS5003;62753;40.394;-80.022;2023-11-18T01:59:00;8;8;
74333;PMS5003;62753;40.394;-80.022;2023-11-18T02:01:26;4;4;
74333;PMS5003;62753;40.394;-80.022;2023-11-18T02:03:51;2;2;
74333;PMS5003;62753;40.394;-80.022;2023-11-18T02:06:17;1;1;
74333;PMS5003;62753;40.394;-80.022;2023-11-18T02:08:42;1;1;
74333;PMS5003;62753;40.394;-80.022;2023-11-18T02:11:10;2;2;
74333;PMS5003;62753;40.394;-80.022;2023-11-18T02:13:34;3;2;
74333;PMS5003;62753;40.394;-80.022;2023-11-18T02:15:58;1;1;
74333;PMS5003;62753;40.394;-80.022;2023-11-18T02:18:24;1;1;
74333;PMS5003;62753;40.394;-80.022;2023-11-18T02:20:49;0;0;
74333;PMS5003;62753;40.394;-80.022;2023-11-18T02:23:14;0;0;
74333;PMS5003;62753;40.394;-80.022;2023-11-18T02:25:42;1;1;
74333;PMS5003;62753;40.394;-80.022;2023-11-18T02:28:05;2;1;
74333;PMS5003;62753;40.394;-80.022;2023-11-18T02:30:31;2;1;
74333;PMS5003;62753;40.394;-80.022;2023-11-18T02:32:58;1;1;
74333;PMS5003;62753;40.394;-80.022;2023-11-18T02:35:23;1;1;
74333;PMS5003;62753;40.394;-80.022;2023-11-18T02:37:47;3;2;
74333;PMS5003;62753;40.394;-80.022;2023-11-18T02:40:13;1;1;
74333;PMS5003;62753;40.394;-80.022;2023-11-18T02:42:38;0;0;
74333;PMS5003;62753;40.394;-80.022;2023-11-18T02:45:03;2;2;
74333;PMS5003;62753;40.394;-80.022;2023-11-18T02:47:28;0;0;
74333;PMS5003;62753;40.394;-80.022;2023-11-18T02:49:54;2;2;
74333;PMS5003;62753;40.394;-80.022;2023-11-18T02:52:19;2;2;
74333;PMS5003;62753;40.394;-80.022;2023-11-18T02:54:44;2;2;
74333;PMS5003;62753;40.394;-80.022;2023-11-18T02:57:10;3;3;
74333;PMS5003;62753;40.394;-80.022;2023-11-18T02:59:36;2;2;
74333;PMS5003;62753;40.394;-80.022;2023-11-18T03:02:01;3;3;
74333;PMS5003;62753;40.394;-80.022;2023-11-18T03:04:27;2;1;
74333;PMS5003;62753;40.394;-80.022;2023-11-18T03:06:52;1;1;
74333;PMS5003;62753;40.394;-80.022;2023-11-18T03:09:17;2;2;
74333;PMS5003;62753;40.394;-80.022;2023-11-18T03:11:43;3;3;
74333;PMS5003;62753;40.394;-80.022;2023-11-18T03:14:08;6;3;
74333;PMS5003;62753;40.394;-80.022;2023-11-18T03:16:33;1;1;
74333;PMS5003;62753;40.394;-80.022;2023-11-18T03:18:59;2;2;
74333;PMS5003;62753;40.394;-80.022;2023-11-18T03:21:24;1;1;
74333;PMS5003;62753;40.394;-80.022;2023-11-18T03:23:50;3;2;
74333;PMS5003;62753;40.394;-80.022;2023-11-18T03:26:15;1;1;
74333;PMS5003;62753;40.394;-80.022;2023-11-18T03:28:40;3;2;
74333;PMS5003;62753;40.394;-80.022;2023-11-18T03:31:06;2;2;
74333;PMS5003;62753;40.394;-80.022;2023-11-18T03:33:32;2;1;
74333;PMS5003;62753;40.394;-80.022;2023-11-18T03:35:57;2;2;
74333;PMS5003;62753;40.394;-80.022;2023-11-18T03:38:22;1;1;
74333;PMS5003;62753;40.394;-80.022;2023-11-18T03:40:48;2;2;
74333;PMS5003;62753;40.394;-80.022;2023-11-18T03:43:13;1;1;
74333;PMS5003;62753;40.394;-80.022;2023-11-18T03:45:39;2;2;
74333;PMS5003;62753;40.394;-80.022;2023-11-18T03:48:04;2;2;
74333;PMS5003;62753;40.394;-80.022;2023-11-18T03:50:30;2;2;
74333;PMS5003;62753;40.394;-80.022;2023-11-18T03:52:55;1;1;
74333;PMS5003;62753;40.394;-80.022;2023-11-18T03:55:20;2;2;
74333;PMS5003;62753;40.394;-80.022;2023-11-18T03:57:46;1;1;
74333;PMS5003;62753;40.394;-80.022;2023-11-18T04:00:15;2;2;
74333;PMS5003;62753;40.394;-80.022;2023-11-18T04:02:37;1;1;
74333;PMS5003;62753;40.394;-80.022;2023-11-18T04:05:02;2;2;
74333;PMS5003;62753;40.394;-80.022;2023-11-18T04:07:28;2;1;
74333;PMS5003;62753;40.394;-80.022;2023-11-18T04:09:53;1;1;
74333;PMS5003;62753;40.394;-80.022;2023-11-18T04:12:19;3;2;
74333;PMS5003;62753;40.394;-80.022;2023-11-18T04:14:44;2;2;
74333;PMS5003;62753;40.394;-80.022;2023-11-18T04:17:10;4;3;
74333;PMS5003;62753;40.394;-80.022;2023-11-18T04:19:35;4;3;
74333;PMS5003;62753;40.394;-80.022;2023-11-18T04:22:06;2;2;
74333;PMS5003;62753;40.394;-80.022;2023-11-18T04:24:26;3;3;
74333;PMS5003;62753;40.394;-80.022;2023-11-18T04:26:51;3;3;
74333;PMS5003;62753;40.394;-80.022;2023-11-18T04:29:17;3;3;
74333;PMS5003;62753;40.394;-80.022;2023-11-18T04:31:42;3;2;
74333;PMS5003;62753;40.394;-80.022;2023-11-18T04:34:08;4;4;
74333;PMS5003;62753;40.394;-80.022;2023-11-18T04:36:33;7;6;
74333;PMS5003;62753;40.394;-80.022;2023-11-18T04:38:59;5;5;
74333;PMS5003;62753;40.394;-80.022;2023-11-18T04:41:24;4;4;
74333;PMS5003;62753;40.394;-80.022;2023-11-18T04:43:50;4;4;
74333;PMS5003;62753;40.394;-80.022;2023-11-18T04:46:15;10;6;
74333;PMS5003;62753;40.394;-80.022;2023-11-18T04:48:40;6;5;
74333;PMS5003;62753;40.394;-80.022;2023-11-18T04:51:06;8;7;
74333;PMS5003;62753;40.394;-80.022;2023-11-18T04:53:31;6;5;
74333;PMS5003;62753;40.394;-80.022;2023-11-18T04:55:57;7;7;
74333;PMS5003;62753;40.394;-80.022;2023-11-18T04:58:22;7;6;
74333;PMS5003;62753;40.394;-80.022;2023-11-18T05:00:48;9;9;
74333;PMS5003;62753;40.394;-80.022;2023-11-18T05:03:13;11;11;
74333;PMS5003;62753;40.394;-80.022;2023-11-18T05:05:38;12;11;
74333;PMS5003;62753;40.394;-80.022;2023-11-18T05:08:04;11;10;
74333;PMS5003;62753;40.394;-80.022;2023-11-18T05:10:29;10;10;
74333;PMS5003;62753;40.394;-80.022;2023-11-18T05:12:55;12;12;
74333;PMS5003;62753;40.394;-80.022;2023-11-18T05:15:20;14;11;
74333;PMS5003;62753;40.394;-80.022;2023-11-18T05:17:46;15;14;
74333;PMS5003;62753;40.394;-80.022;2023-11-18T05:20:12;21;16;
74333;PMS5003;62753;40.394;-80.022;2023-11-18T05:22:37;19;17;
74333;PMS5003;62753;40.394;-80.022;2023-11-18T05:25:02;15;14;
74333;PMS5003;62753;40.394;-80.022;2023-11-18T05:27:28;16;16;
74333;PMS5003;62753;40.394;-80.022;2023-11-18T05:29:53;16;15;
74333;PMS5003;62753;40.394;-80.022;2023-11-18T05:32:18;16;16;
74333;PMS5003;62753;40.394;-80.022;2023-11-18T05:34:43;17;16;
74333;PMS5003;62753;40.394;-80.022;2023-11-18T05:37:09;16;14;
74333;PMS5003;62753;40.394;-80.022;2023-11-18T05:39:34;19;17;
74333;PMS5003;62753;40.394;-80.022;2023-11-18T05:41:59;15;14;
74333;PMS5003;62753;40.394;-80.022;2023-11-18T05:44:24;19;18;
74333;PMS5003;62753;40.394;-80.022;2023-11-18T05:46:49;17;16;
74333;PMS5003;62753;40.394;-80.022;2023-11-18T05:49:15;19;18;
74333;PMS5003;62753;40.394;-80.022;2023-11-18T05:51:41;18;16;
74333;PMS5003;62753;40.394;-80.022;2023-11-18T05:54:06;17;17;
74333;PMS5003;62753;40.394;-80.022;2023-11-18T05:56:32;21;18;
74333;PMS5003;62753;40.394;-80.022;2023-11-18T05:58:58;16;16;
74333;PMS5003;62753;40.394;-80.022;2023-11-18T06:01:24;17;16;
74333;PMS5003;62753;40.394;-80.022;2023-11-18T06:03:48;14;14;
74333;PMS5003;62753;40.394;-80.022;2023-11-18T06:06:14;16;16;
74333;PMS5003;62753;40.394;-80.022;2023-11-18T06:08:39;13;12;
74333;PMS5003;62753;40.394;-80.022;2023-11-18T06:11:04;18;17;
74333;PMS5003;62753;40.394;-80.022;2023-11-18T06:13:29;18;18;
74333;PMS5003;62753;40.394;-80.022;2023-11-18T06:15:56;20;16;
74333;PMS5003;62753;40.394;-80.022;2023-11-18T06:18:20;16;16;
74333;PMS5003;62753;40.394;-80.022;2023-11-18T06:20:46;17;16;
74333;PMS5003;62753;40.394;-80.022;2023-11-18T06:23:11;15;14;
74333;PMS5003;62753;40.394;-80.022;2023-11-18T06:25:37;25;17;
74333;PMS5003;62753;40.394;-80.022;2023-11-18T06:28:03;15;15;
74333;PMS5003;62753;40.394;-80.022;2023-11-18T06:30:28;14;13;
74333;PMS5003;62753;40.394;-80.022;2023-11-18T06:32:53;15;14;
74333;PMS5003;62753;40.394;-80.022;2023-11-18T06:35:18;17;16;
74333;PMS5003;62753;40.394;-80.022;2023-11-18T06:37:43;14;13;
74333;PMS5003;62753;40.394;-80.022;2023-11-18T06:40:10;16;14;
74333;PMS5003;62753;40.394;-80.022;2023-11-18T06:42:34;16;15;
74333;PMS5003;62753;40.394;-80.022;2023-11-18T06:45:00;14;13;
74333;PMS5003;62753;40.394;-80.022;2023-11-18T06:47:25;16;14;
74333;PMS5003;62753;40.394;-80.022;2023-11-18T06:49:51;14;13;
74333;PMS5003;62753;40.394;-80.022;2023-11-18T06:52:16;18;17;
74333;PMS5003;62753;40.394;-80.022;2023-11-18T06:54:42;14;14;
74333;PMS5003;62753;40.394;-80.022;2023-11-18T06:57:08;11;11;
74333;PMS5003;62753;40.394;-80.022;2023-11-18T06:59:33;15;12;
74333;PMS5003;62753;40.394;-80.022;2023-11-18T07:01:58;15;15;
74333;PMS5003;62753;40.394;-80.022;2023-11-18T07:04:23;13;13;
74333;PMS5003;62753;40.394;-80.022;2023-11-18T07:06:49;14;13;
74333;PMS5003;62753;40.394;-80.022;2023-11-18T07:09:14;17;12;
74333;PMS5003;62753;40.394;-80.022;2023-11-18T07:11:39;10;10;
74333;PMS5003;62753;40.394;-80.022;2023-11-18T07:14:05;14;14;
74333;PMS5003;62753;40.394;-80.022;2023-11-18T07:16:30;12;12;
74333;PMS5003;62753;40.394;-80.022;2023-11-18T07:18:56;12;11;
74333;PMS5003;62753;40.394;-80.022;2023-11-18T07:21:22;11;11;
74333;PMS5003;62753;40.394;-80.022;2023-11-18T07:23:47;7;7;
74333;PMS5003;62753;40.394;-80.022;2023-11-18T07:26:12;13;10;
74333;PMS5003;62753;40.394;-80.022;2023-11-18T07:28:38;13;12;
74333;PMS5003;62753;40.394;-80.022;2023-11-18T07:31:03;11;10;
74333;PMS5003;62753;40.394;-80.022;2023-11-18T07:33:29;9;9;
74333;PMS5003;62753;40.394;-80.022;2023-11-18T07:35:55;12;11;
74333;PMS5003;62753;40.394;-80.022;2023-11-18T07:38:20;9;9;
74333;PMS5003;62753;40.394;-80.022;2023-11-18T07:40:45;10;9;
74333;PMS5003;62753;40.394;-80.022;2023-11-18T07:43:11;9;8;
74333;PMS5003;62753;40.394;-80.022;2023-11-18T07:45:37;8;7;
74333;PMS5003;62753;40.394;-80.022;2023-11-18T07:48:02;9;9;
74333;PMS5003;62753;40.394;-80.022;2023-11-18T07:50:28;8;8;
74333;PMS5003;62753;40.394;-80.022;2023-11-18T07:52:53;9;8;
74333;PMS5003;62753;40.394;-80.022;2023-11-18T07:55:19;8;7;
74333;PMS5003;62753;40.394;-80.022;2023-11-18T07:57:44;8;8;
74333;PMS5003;62753;40.394;-80.022;2023-11-18T08:00:11;8;7;
74333;PMS5003;62753;40.394;-80.022;2023-11-18T08:02:36;8;7;
74333;PMS5003;62753;40.394;-80.022;2023-11-18T08:05:01;7;7;
74333;PMS5003;62753;40.394;-80.022;2023-11-18T08:07:27;5;5;
74333;PMS5003;62753;40.394;-80.022;2023-11-18T08:09:52;5;5;
74333;PMS5003;62753;40.394;-80.022;2023-11-18T08:12:18;6;5;
74333;PMS5003;62753;40.394;-80.022;2023-11-18T08:14:43;4;4;
74333;PMS5003;62753;40.394;-80.022;2023-11-18T08:17:08;4;4;
74333;PMS5003;62753;40.394;-80.022;2023-11-18T08:19:34;6;6;
74333;PMS5003;62753;40.394;-80.022;2023-11-18T08:22:00;5;5;
74333;PMS5003;62753;40.394;-80.022;2023-11-18T08:24:25;8;6;
74333;PMS5003;62753;40.394;-80.022;2023-11-18T08:26:51;5;5;
74333;PMS5003;62753;40.394;-80.022;2023-11-18T08:29:16;5;5;
74333;PMS5003;62753;40.394;-80.022;2023-11-18T08:31:42;3;3;
74333;PMS5003;62753;40.394;-80.022;2023-11-18T08:34:07;4;4;
74333;PMS5003;62753;40.394;-80.022;2023-11-18T08:36:33;5;5;
74333;PMS5003;62753;40.394;-80.022;2023-11-18T08:38:59;4;4;
74333;PMS5003;62753;40.394;-80.022;2023-11-18T08:41:24;5;4;
74333;PMS5003;62753;40.394;-80.022;2023-11-18T08:43:49;4;4;
74333;PMS5003;62753;40.394;-80.022;2023-11-18T08:46:15;5;4;
74333;PMS5003;62753;40.394;-80.022;2023-11-18T08:48:40;5;5;
74333;PMS5003;62753;40.394;-80.022;2023-11-18T08:51:07;5;4;
74333;PMS5003;62753;40.394;-80.022;2023-11-18T08:53:31;4;3;
74333;PMS5003;62753;40.394;-80.022;2023-11-18T08:55:57;6;5;
74333;PMS5003;62753;40.394;-80.022;2023-11-18T08:58:23;5;4;
74333;PMS5003;62753;40.394;-80.022;2023-11-18T09:00:49;4;3;
74333;PMS5003;62753;40.394;-80.022;2023-11-18T09:03:14;4;4;
74333;PMS5003;62753;40.394;-80.022;2023-11-18T09:05:39;5;5;
74333;PMS5003;62753;40.394;-80.022;2023-11-18T09:08:05;4;4;
74333;PMS5003;62753;40.394;-80.022;2023-11-18T09:10:31;3;3;
74333;PMS5003;62753;40.394;-80.022;2023-11-18T09:12:56;5;5;
74333;PMS5003;62753;40.394;-80.022;2023-11-18T09:15:21;4;4;
74333;PMS5003;62753;40.394;-80.022;2023-11-18T09:17:47;3;3;
74333;PMS5003;62753;40.394;-80.022;2023-11-18T09:20:13;3;3;
74333;PMS5003;62753;40.394;-80.022;2023-11-18T09:22:38;4;4;
74333;PMS5003;62753;40.394;-80.022;2023-11-18T09:25:04;3;3;
74333;PMS5003;62753;40.394;-80.022;2023-11-18T09:27:29;2;2;
74333;PMS5003;62753;40.394;-80.022;2023-11-18T09:29:55;3;3;
74333;PMS5003;62753;40.394;-80.022;2023-11-18T09:32:23;2;2;
74333;PMS5003;62753;40.394;-80.022;2023-11-18T09:34:46;2;2;
74333;PMS5003;62753;40.394;-80.022;2023-11-18T09:37:11;4;3;
74333;PMS5003;62753;40.394;-80.022;2023-11-18T09:39:37;3;3;
74333;PMS5003;62753;40.394;-80.022;2023-11-18T09:42:04;4;4;
74333;PMS5003;62753;40.394;-80.022;2023-11-18T09:44:28;4;4;
74333;PMS5003;62753;40.394;-80.022;2023-11-18T09:46:54;3;3;
74333;PMS5003;62753;40.394;-80.022;2023-11-18T09:49:21;3;3;
74333;PMS5003;62753;40.394;-80.022;2023-11-18T09:51:45;3;3;
74333;PMS5003;62753;40.394;-80.022;2023-11-18T09:54:12;3;3;
74333;PMS5003;62753;40.394;-80.022;2023-11-18T09:56:38;2;2;
74333;PMS5003;62753;40.394;-80.022;2023-11-18T09:59:05;2;2;
74333;PMS5003;62753;40.394;-80.022;2023-11-18T10:01:27;2;2;
74333;PMS5003;62753;40.394;-80.022;2023-11-18T10:03:52;3;3;
74333;PMS5003;62753;40.394;-80.022;2023-11-18T10:06:18;3;2;
74333;PMS5003;62753;40.394;-80.022;2023-11-18T10:08:43;3;3;
74333;PMS5003;62753;40.394;-80.022;2023-11-18T10:11:09;3;3;
74333;PMS5003;62753;40.394;-80.022;2023-11-18T10:13:35;2;2;
74333;PMS5003;62753;40.394;-80.022;2023-11-18T10:16:01;4;3;
74333;PMS5003;62753;40.394;-80.022;2023-11-18T10:18:26;3;3;
74333;PMS5003;62753;40.394;-80.022;2023-11-18T10:20:51;2;2;
74333;PMS5003;62753;40.394;-80.022;2023-11-18T10:23:17;3;3;
74333;PMS5003;62753;40.394;-80.022;2023-11-18T10:25:43;2;2;
74333;PMS5003;62753;40.394;-80.022;2023-11-18T10:28:08;3;3;
74333;PMS5003;62753;40.394;-80.022;2023-11-18T10:30:35;3;3;
74333;PMS5003;62753;40.394;-80.022;2023-11-18T10:32:59;1;1;
74333;PMS5003;62753;40.394;-80.022;2023-11-18T10:35:25;5;4;
74333;PMS5003;62753;40.394;-80.022;2023-11-18T10:37:51;3;3;
74333;PMS5003;62753;40.394;-80.022;2023-11-18T10:40:16;3;3;
74333;PMS5003;62753;40.394;-80.022;2023-11-18T10:42:42;2;2;
74333;PMS5003;62753;40.394;-80.022;2023-11-18T10:45:08;3;3;
74333;PMS5003;62753;40.394;-80.022;2023-11-18T10:47:33;3;2;
74333;PMS5003;62753;40.394;-80.022;2023-11-18T10:49:58;4;4;
74333;PMS5003;62753;40.394;-80.022;2023-11-18T10:52:24;3;2;
74333;PMS5003;62753;40.394;-80.022;2023-11-18T10:54:50;2;2;
74333;PMS5003;62753;40.394;-80.022;2023-11-18T10:57:15;3;3;
74333;PMS5003;62753;40.394;-80.022;2023-11-18T11:04:42;4;3;
74333;PMS5003;62753;40.394;-80.022;2023-11-18T11:06:58;4;4;
74333;PMS5003;62753;40.394;-80.022;2023-11-18T11:09:24;3;3;
74333;PMS5003;62753;40.394;-80.022;2023-11-18T11:11:49;4;4;
74333;PMS5003;62753;40.394;-80.022;2023-11-18T11:14:15;3;3;
74333;PMS5003;62753;40.394;-80.022;2023-11-18T11:16:41;4;3;
74333;PMS5003;62753;40.394;-80.022;2023-11-18T11:19:05;2;2;
74333;PMS5003;62753;40.394;-80.022;2023-11-18T11:21:31;3;3;
74333;PMS5003;62753;40.394;-80.022;2023-11-18T11:24:00;2;2;
74333;PMS5003;62753;40.394;-80.022;2023-11-18T11:26:23;4;4;
74333;PMS5003;62753;40.394;-80.022;2023-11-18T11:28:51;3;3;
74333;PMS5003;62753;40.394;-80.022;2023-11-18T11:31:16;3;3;
74333;PMS5003;62753;40.394;-80.022;2023-11-18T11:33:39;4;4;
74333;PMS5003;62753;40.394;-80.022;2023-11-18T11:36:05;5;5;
74333;PMS5003;62753;40.394;-80.022;2023-11-18T11:38:31;4;3;
74333;PMS5003;62753;40.394;-80.022;2023-11-18T11:40:56;4;4;
74333;PMS5003;62753;40.394;-80.022;2023-11-18T11:43:22;3;3;
74333;PMS5003;62753;40.394;-80.022;2023-11-18T11:45:48;5;4;
74333;PMS5003;62753;40.394;-80.022;2023-11-18T11:48:13;3;3;
74333;PMS5003;62753;40.394;-80.022;2023-11-18T11:50:43;5;5;
74333;PMS5003;62753;40.394;-80.022;2023-11-18T11:53:05;4;4;
74333;PMS5003;62753;40.394;-80.022;2023-11-18T11:55:33;5;5;
74333;PMS5003;62753;40.394;-80.022;2023-11-18T11:57:55;4;4;
74333;PMS5003;62753;40.394;-80.022;2023-11-18T12:00:21;4;3;
74333;PMS5003;62753;40.394;-80.022;2023-11-18T12:02:48;3;3;
74333;PMS5003;62753;40.394;-80.022;2023-11-18T12:05:15;5;5;
74333;PMS5003;62753;40.394;-80.022;2023-11-18T12:07:39;3;3;
74333;PMS5003;62753;40.394;-80.022;2023-11-18T12:10:07;6;5;
74333;PMS5003;62753;40.394;-80.022;2023-11-18T12:12:29;5;4;
74333;PMS5003;62753;40.394;-80.022;2023-11-18T12:14:55;3;3;
74333;PMS5003;62753;40.394;-80.022;2023-11-18T12:17:20;4;4;
74333;PMS5003;62753;40.394;-80.022;2023-11-18T12:19:46;5;5;
74333;PMS5003;62753;40.394;-80.022;2023-11-18T12:22:11;3;3;
74333;PMS5003;62753;40.394;-80.022;2023-11-18T12:24:37;3;3;
74333;PMS5003;62753;40.394;-80.022;2023-11-18T12:27:02;3;3;
74333;PMS5003;62753;40.394;-80.022;2023-11-18T12:29:31;4;4;
74333;PMS5003;62753;40.394;-80.022;2023-11-18T12:31:53;3;3;
74333;PMS5003;62753;40.394;-80.022;2023-11-18T12:34:19;3;3;
74333;PMS5003;62753;40.394;-80.022;2023-11-18T12:41:36;5;5;
74333;PMS5003;62753;40.394;-80.022;2023-11-18T12:44:06;4;3;
74333;PMS5003;62753;40.394;-80.022;2023-11-18T12:48:53;4;4;
74333;PMS5003;62753;40.394;-80.022;2023-11-18T12:51:18;4;3;
74333;PMS5003;62753;40.394;-80.022;2023-11-18T12:53:44;3;3;
74333;PMS5003;62753;40.394;-80.022;2023-11-18T12:56:09;4;3;
74333;PMS5003;62753;40.394;-80.022;2023-11-18T12:58:35;4;4;
74333;PMS5003;62753;40.394;-80.022;2023-11-18T13:01:01;3;3;
74333;PMS5003;62753;40.394;-80.022;2023-11-18T13:03:26;5;5;
74333;PMS5003;62753;40.394;-80.022;2023-11-18T13:05:52;6;6;
74333;PMS5003;62753;40.394;-80.022;2023-11-18T13:08:18;5;4;
74333;PMS5003;62753;40.394;-80.022;2023-11-18T13:10:43;3;3;
74333;PMS5003;62753;40.394;-80.022;2023-11-18T13:13:08;5;4;
74333;PMS5003;62753;40.394;-80.022;2023-11-18T13:15:34;6;6;
74333;PMS5003;62753;40.394;-80.022;2023-11-18T13:18:00;5;4;
74333;PMS5003;62753;40.394;-80.022;2023-11-18T13:20:25;6;5;
74333;PMS5003;62753;40.394;-80.022;2023-11-18T13:22:51;7;3;
74333;PMS5003;62753;40.394;-80.022;2023-11-18T13:25:16;5;3;
74333;PMS5003;62753;40.394;-80.022;2023-11-18T13:27:42;6;5;
74333;PMS5003;62753;40.394;-80.022;2023-11-18T13:30:07;5;4;
74333;PMS5003;62753;40.394;-80.022;2023-11-18T13:32:33;6;5;
74333;PMS5003;62753;40.394;-80.022;2023-11-18T13:35:00;4;4;
74333;PMS5003;62753;40.394;-80.022;2023-11-18T13:37:24;5;5;
74333;PMS5003;62753;40.394;-80.022;2023-11-18T13:39:53;6;5;
74333;PMS5003;62753;40.394;-80.022;2023-11-18T13:42:18;3;3;
74333;PMS5003;62753;40.394;-80.022;2023-11-18T13:44:40;4;4;
74333;PMS5003;62753;40.394;-80.022;2023-11-18T13:47:06;5;5;
74333;PMS5003;62753;40.394;-80.022;2023-11-18T13:49:31;6;6;
74333;PMS5003;62753;40.394;-80.022;2023-11-18T13:51:57;6;5;
74333;PMS5003;62753;40.394;-80.022;2023-11-18T13:54:22;4;4;
74333;PMS5003;62753;40.394;-80.022;2023-11-18T13:56:48;5;5;
74333;PMS5003;62753;40.394;-80.022;2023-11-18T13:59:14;7;6;
74333;PMS5003;62753;40.394;-80.022;2023-11-18T14:01:39;7;6;
74333;PMS5003;62753;40.394;-80.022;2023-11-18T14:04:05;5;5;
74333;PMS5003;62753;40.394;-80.022;2023-11-18T14:06:30;6;6;
74333;PMS5003;62753;40.394;-80.022;2023-11-18T14:08:56;6;6;
74333;PMS5003;62753;40.394;-80.022;2023-11-18T14:11:21;4;4;
74333;PMS5003;62753;40.394;-80.022;2023-11-18T14:13:46;6;5;
74333;PMS5003;62753;40.394;-80.022;2023-11-18T14:16:12;5;4;
74333;PMS5003;62753;40.394;-80.022;2023-11-18T14:18:38;5;5;
74333;PMS5003;62753;40.394;-80.022;2023-11-18T14:21:03;4;4;
74333;PMS5003;62753;40.394;-80.022;2023-11-18T14:23:29;6;5;
74333;PMS5003;62753;40.394;-80.022;2023-11-18T14:25:54;4;4;
74333;PMS5003;62753;40.394;-80.022;2023-11-18T14:28:20;5;5;
74333;PMS5003;62753;40.394;-80.022;2023-11-18T14:30:45;5;4;
74333;PMS5003;62753;40.394;-80.022;2023-11-18T14:33:11;4;4;
74333;PMS5003;62753;40.394;-80.022;2023-11-18T14:35:36;4;4;
74333;PMS5003;62753;40.394;-80.022;2023-11-18T14:38:02;4;3;
74333;PMS5003;62753;40.394;-80.022;2023-11-18T14:40:27;6;5;
74333;PMS5003;62753;40.394;-80.022;2023-11-18T14:42:53;4;4;
74333;PMS5003;62753;40.394;-80.022;2023-11-18T14:45:19;5;5;
74333;PMS5003;62753;40.394;-80.022;2023-11-18T14:47:44;3;3;
74333;PMS5003;62753;40.394;-80.022;2023-11-18T14:50:10;3;3;
74333;PMS5003;62753;40.394;-80.022;2023-11-18T14:52:35;2;2;
74333;PMS5003;62753;40.394;-80.022;2023-11-18T14:55:01;3;3;
74333;PMS5003;62753;40.394;-80.022;2023-11-18T14:57:26;3;3;
74333;PMS5003;62753;40.394;-80.022;2023-11-18T14:59:52;2;2;
74333;PMS5003;62753;40.394;-80.022;2023-11-18T15:02:17;3;3;
74333;PMS5003;62753;40.394;-80.022;2023-11-18T15:04:43;4;4;
74333;PMS5003;62753;40.394;-80.022;2023-11-18T15:07:08;3;3;
74333;PMS5003;62753;40.394;-80.022;2023-11-18T15:09:34;3;3;
74333;PMS5003;62753;40.394;-80.022;2023-11-18T15:11:59;3;2;
74333;PMS5003;62753;40.394;-80.022;2023-11-18T15:14:24;3;2;
74333;PMS5003;62753;40.394;-80.022;2023-11-18T15:16:50;3;2;
74333;PMS5003;62753;40.394;-80.022;2023-11-18T15:19:16;4;3;
74333;PMS5003;62753;40.394;-80.022;2023-11-18T15:21:41;3;2;
74333;PMS5003;62753;40.394;-80.022;2023-11-18T15:24:07;3;3;
74333;PMS5003;62753;40.394;-80.022;2023-11-18T15:26:32;2;2;
74333;PMS5003;62753;40.394;-80.022;2023-11-18T15:28:58;3;2;
74333;PMS5003;62753;40.394;-80.022;2023-11-18T15:31:23;3;3;
74333;PMS5003;62753;40.394;-80.022;2023-11-18T15:33:49;4;4;
74333;PMS5003;62753;40.394;-80.022;2023-11-18T15:36:14;3;3;
74333;PMS5003;62753;40.394;-80.022;2023-11-18T15:38:39;3;3;
74333;PMS5003;62753;40.394;-80.022;2023-11-18T15:41:05;4;3;
74333;PMS5003;62753;40.394;-80.022;2023-11-18T15:43:31;2;2;
74333;PMS5003;62753;40.394;-80.022;2023-11-18T15:45:56;2;2;
74333;PMS5003;62753;40.394;-80.022;2023-11-18T15:48:22;3;3;
74333;PMS5003;62753;40.394;-80.022;2023-11-18T15:50:47;2;2;
74333;PMS5003;62753;40.394;-80.022;2023-11-18T15:53:13;4;3;
74333;PMS5003;62753;40.394;-80.022;2023-11-18T15:55:39;3;3;
74333;PMS5003;62753;40.394;-80.022;2023-11-18T15:58:04;2;2;
74333;PMS5003;62753;40.394;-80.022;2023-11-18T16:00:30;4;3;
74333;PMS5003;62753;40.394;-80.022;2023-11-18T16:02:55;2;2;
74333;PMS5003;62753;40.394;-80.022;2023-11-18T16:05:21;3;3;
74333;PMS5003;62753;40.394;-80.022;2023-11-18T16:07:46;2;2;